Time;durP1;ratioP1;P1;durP2;ratioP2;P2;SDS_P1;SDS_P2;PMS_P1;PMS_P2;Temp;Humidity;BMP_temperature;BMP_pressure;BME280_temperature;BME280_humidity;BME280_pressure;Samples;Min_cycle;Max_cycle;Signal;HPM_P1;HPM_P2
2022/09/27 00:01:37;;;;;;;0.70;0.70;;;11.90;87.50;;;14.72;52.12;95827.81;5028818;28;20239;-49
2022/09/27 00:04:05;;;;;;;1.30;0.68;;;11.90;87.60;;;14.75;52.16;95846.09;5028536;28;20244;-49
2022/09/27 00:06:33;;;;;;;1.27;0.52;;;11.80;88.00;;;14.71;52.21;95831.53;5028773;28;20083;-46
2022/09/27 00:09:09;;;;;;;0.77;0.68;;;11.80;88.70;;;14.71;52.10;95832.38;5029578;28;20083;-45
2022/09/27 00:11:41;;;;;;;0.80;0.65;;;11.80;89.20;;;14.67;52.40;95838.41;5028290;28;20061;-47
2022/09/27 00:14:12;;;;;;;1.20;0.70;;;11.80;89.70;;;14.72;52.51;95842.03;5028993;28;20340;-50
2022/09/27 00:16:42;;;;;;;0.63;0.63;;;11.90;90.50;;;14.61;53.16;95837.47;5029881;28;20049;-48
2022/09/27 00:19:18;;;;;;;0.70;0.70;;;11.70;92.90;;;14.63;53.19;95835.38;5027913;28;20045;-46
2022/09/27 00:21:47;;;;;;;0.98;0.90;;;11.70;95.70;;;14.59;53.25;95838.75;5028740;28;20200;-46
2022/09/27 00:24:21;;;;;;;0.82;0.50;;;11.60;97.30;;;14.47;53.91;95830.66;5028659;28;20045;-46
2022/09/27 00:26:49;;;;;;;0.85;0.60;;;11.50;99.90;;;14.56;53.56;95823.94;5028346;28;20252;-50
2022/09/27 00:29:18;;;;;;;1.25;0.70;;;11.50;99.90;;;14.61;53.38;95836.66;5043431;28;20386;-46
2022/09/27 00:31:47;;;;;;;1.05;0.95;;;11.50;99.90;;;14.63;53.48;95834.56;5026925;28;20422;-46
2022/09/27 00:34:24;;;;;;;1.00;0.85;;;11.60;99.90;;;14.68;53.26;95830.13;5043294;28;20083;-45
2022/09/27 00:36:52;;;;;;;0.88;0.60;;;11.60;99.90;;;14.71;53.16;95826.19;5043351;28;20053;-46
2022/09/27 00:39:20;;;;;;;1.35;0.60;;;11.60;99.90;;;14.65;53.29;95822.56;5040292;28;20251;-48
2022/09/27 00:41:48;;;;;;;2.17;0.70;;;11.60;99.90;;;14.61;53.73;95832.09;5042207;28;20284;-45
2022/09/27 00:44:28;;;;;;;0.90;0.80;;;11.50;99.90;;;14.60;53.95;95827.81;5043705;28;20381;-45
2022/09/27 00:47:06;;;;;;;0.88;0.70;;;11.50;99.90;;;14.61;54.25;95824.06;5028659;28;20087;-47
2022/09/27 00:49:37;;;;;;;1.20;0.63;;;11.50;99.90;;;14.55;54.16;95817.75;5027976;28;20063;-49
2022/09/27 00:52:15;;;;;;;2.13;0.70;;;11.50;99.90;;;14.56;54.44;95824.78;5025586;28;20119;-46
2022/09/27 00:54:50;;;;;;;0.98;0.70;;;11.50;99.90;;;14.56;54.64;95830.13;5027437;28;20053;-47
2022/09/27 00:57:21;;;;;;;0.70;0.52;;;11.50;99.90;;;14.58;54.41;95821.88;5026608;28;20053;-49
2022/09/27 01:00:00;;;;;;;0.73;0.52;;;11.60;99.90;;;14.61;54.51;95813.34;5027950;28;20385;-45
2022/09/27 01:02:29;;;;;;;0.32;0.32;;;11.70;99.90;;;14.57;54.71;95815.69;5026329;28;20046;-47
2022/09/27 01:04:58;;;;;;;0.43;0.43;;;11.60;99.90;;;14.50;54.89;95820.31;5025355;28;20058;-45
2022/09/27 01:07:25;;;;;;;0.70;0.70;;;11.50;99.90;;;14.51;54.73;95821.13;5027345;28;20049;-45
2022/09/27 01:09:53;;;;;;;0.60;0.60;;;11.50;99.90;;;14.52;54.59;95818.22;5042248;28;20135;-48
2022/09/27 01:12:57;;;;;;;0.63;0.60;;;11.50;99.90;;;14.51;54.79;95829.97;5042775;28;20062;-50
2022/09/27 01:15:54;;;;;;;0.70;0.47;;;11.50;99.90;;;14.56;54.82;95816.75;5026981;28;20343;-46
2022/09/27 01:18:47;;;;;;;0.73;0.50;;;11.50;99.90;;;14.58;54.67;95816.50;5026808;28;20054;-47
2022/09/27 01:21:32;;;;;;;0.50;0.50;;;11.50;99.90;;;14.61;54.76;95828.63;5026621;28;20049;-48
2022/09/27 01:24:30;;;;;;;1.55;0.70;;;11.50;99.90;;;14.62;54.59;95820.34;5042706;28;20378;-45
2022/09/27 01:27:28;;;;;;;0.82;0.52;;;11.60;99.90;;;14.61;54.75;95815.22;5044300;28;20352;-45
2022/09/27 01:30:17;;;;;;;0.77;0.65;;;11.60;99.90;;;14.59;54.83;95823.50;5042528;28;20056;-46
2022/09/27 01:33:10;;;;;;;0.73;0.50;;;11.50;99.90;;;14.61;54.77;95817.91;5042668;28;20049;-47
2022/09/27 01:35:41;;;;;;;0.80;0.40;;;11.50;99.90;;;14.65;54.80;95813.72;5026342;28;20378;-48
2022/09/27 01:38:42;;;;;;;0.40;0.40;;;11.60;99.90;;;14.66;54.69;95818.84;5043058;28;20053;-48
2022/09/27 01:41:28;;;;;;;0.57;0.45;;;11.60;99.90;;;14.66;54.86;95815.34;5011915;28;20053;-47
2022/09/27 01:44:38;;;;;;;1.20;0.70;;;11.50;99.90;;;14.66;54.85;95816.16;5026781;28;20045;-47
2022/09/27 01:47:19;;;;;;;0.45;0.43;;;11.50;99.90;;;14.68;54.91;95815.94;5041939;28;20057;-48
2022/09/27 01:50:33;;;;;;;0.70;0.70;;;11.50;99.90;;;14.64;55.07;95820.13;5026156;28;20457;-48
2022/09/27 01:53:35;;;;;;;1.60;0.63;;;11.50;99.90;;;14.64;55.00;95815.59;5008870;28;20076;-48
2022/09/27 01:56:47;;;;;;;1.17;0.60;;;11.50;99.90;;;14.65;55.13;95813.72;5025992;28;20045;-49
2022/09/27 01:59:34;;;;;;;0.80;0.60;;;11.50;99.90;;;14.61;55.44;95818.72;5026479;28;20045;-48
2022/09/27 02:02:20;;;;;;;1.40;0.60;;;11.50;99.90;;;14.61;55.60;95818.72;5028026;28;20049;-47
2022/09/27 02:05:12;;;;;;;0.88;0.60;;;11.50;99.90;;;14.50;56.16;95828.34;5025799;28;20060;-47
2022/09/27 02:07:50;;;;;;;0.52;0.52;;;11.40;99.90;;;14.45;56.13;95835.44;5043623;28;20060;-50
2022/09/27 02:10:30;;;;;;;1.93;0.80;;;11.40;99.90;;;14.43;56.45;95829.50;5025627;28;20059;-47
2022/09/27 02:13:25;;;;;;;0.80;0.60;;;11.40;99.90;;;14.37;56.95;95845.41;5025802;28;20359;-49
2022/09/27 02:16:36;;;;;;;0.60;0.52;;;11.30;99.90;;;13.86;58.33;95854.78;5027309;28;20247;-46
2022/09/27 02:19:51;;;;;;;0.93;0.52;;;11.10;99.90;;;13.75;58.29;95853.66;5008988;28;20176;-47
2022/09/27 02:22:52;;;;;;;2.03;0.70;;;10.90;99.90;;;13.53;59.13;95850.66;5041590;28;20062;-46
2022/09/27 02:25:41;;;;;;;0.33;0.33;;;10.70;99.90;;;13.42;58.87;95853.25;5024561;28;20371;-48
2022/09/27 02:28:35;;;;;;;4.25;0.73;;;10.60;99.90;;;13.56;58.03;95852.88;5026460;28;20271;-46
2022/09/27 02:31:04;;;;;;;1.08;0.65;;;10.60;99.90;;;13.64;57.77;95850.94;5010443;28;20076;-47
2022/09/27 02:34:02;;;;;;;1.27;0.80;;;10.60;99.90;;;13.53;57.91;95847.97;5024624;28;20083;-49
2022/09/27 02:36:30;;;;;;;3.60;1.30;;;10.60;99.90;;;13.47;58.25;95856.06;5025524;28;20041;-45
2022/09/27 02:38:59;;;;;;;3.50;1.20;;;10.50;99.90;;;13.16;58.35;95858.63;5010161;28;20049;-45
2022/09/27 02:41:28;;;;;;;2.33;0.90;;;10.40;99.90;;;13.23;58.12;95866.56;5026533;28;20068;-47
2022/09/27 02:44:03;;;;;;;1.83;0.90;;;10.40;99.90;;;12.83;59.19;95858.09;5025918;28;20420;-47
2022/09/27 02:46:47;;;;;;;2.47;1.00;;;10.20;99.90;;;12.97;58.61;95857.78;5041011;28;20065;-50
2022/09/27 02:50:11;;;;;;;3.13;1.20;;;10.10;99.90;;;12.32;60.20;95862.59;5009182;28;20057;-45
2022/09/27 02:53:36;;;;;;;1.87;0.90;;;10.00;99.90;;;12.08;61.11;95856.19;5032096;28;20071;-45
2022/09/27 02:56:54;;;;;;;1.63;0.98;;;9.80;99.90;;;12.57;59.42;95863.44;5034291;28;20049;-45
2022/09/27 03:00:14;;;;;;;3.80;1.30;;;9.90;99.90;;;12.64;59.31;95868.75;5028323;28;20054;-47
2022/09/27 03:03:49;;;;;;;2.58;1.30;;;9.90;99.90;;;12.48;59.73;95872.75;5023553;28;20260;-50
2022/09/27 03:06:22;;;;;;;2.43;1.07;;;9.90;99.90;;;12.61;59.17;95869.16;5039975;28;20351;-50
2022/09/27 03:08:50;;;;;;;2.60;1.50;;;10.00;99.90;;;12.68;59.57;95871.78;5025345;28;20061;-48
2022/09/27 03:11:18;;;;;;;4.47;1.43;;;10.00;99.90;;;12.71;59.19;95880.16;5041964;28;20672;-46
2022/09/27 03:13:46;;;;;;;2.50;1.80;;;10.00;99.90;;;12.73;59.33;95874.63;5026501;28;20053;-46
2022/09/27 03:16:36;;;;;;;3.83;2.10;;;10.00;99.90;;;12.80;59.17;95875.41;5043900;28;20068;-45
2022/09/27 03:19:27;;;;;;;3.43;2.13;;;10.10;99.90;;;12.87;59.28;95875.31;5029657;28;20053;-49
2022/09/27 03:22:14;;;;;;;6.83;2.90;;;10.20;99.90;;;12.62;59.63;95878.84;5033606;28;20193;-49
2022/09/27 03:24:43;;;;;;;1.90;1.30;;;10.10;99.90;;;12.70;60.10;95886.56;5043565;28;20353;-48
2022/09/27 03:27:11;;;;;;;3.93;1.60;;;10.10;99.90;;;12.79;59.78;95893.28;5044716;28;20060;-45
2022/09/27 03:29:39;;;;;;;8.73;2.10;;;10.20;99.90;;;12.85;59.49;95890.75;5043834;28;20061;-48
2022/09/27 03:32:09;;;;;;;6.50;1.90;;;10.10;99.90;;;12.86;59.55;95895.88;5028115;28;20271;-48
2022/09/27 03:35:15;;;;;;;6.27;2.67;;;10.10;99.90;;;12.82;59.72;95896.53;5047785;28;20053;-46
2022/09/27 03:37:43;;;;;;;5.53;2.53;;;10.10;99.90;;;12.90;59.62;95896.25;5047450;28;20060;-47
2022/09/27 03:40:11;;;;;;;8.80;2.60;;;10.10;99.90;;;12.55;60.36;95899.41;5027474;28;20056;-46
2022/09/27 03:42:40;;;;;;;5.87;1.87;;;10.10;99.90;;;12.70;60.03;95894.56;5044517;28;20099;-47
2022/09/27 03:45:13;;;;;;;6.72;2.25;;;10.10;99.90;;;12.71;59.98;95890.84;5027259;28;20336;-46
2022/09/27 03:47:41;;;;;;;5.73;2.37;;;10.10;99.90;;;12.75;59.85;95899.25;5044274;28;20059;-48
2022/09/27 03:50:11;;;;;;;6.97;2.40;;;10.10;99.90;;;12.92;59.46;95892.34;5043345;28;20067;-47
2022/09/27 03:52:41;;;;;;;3.50;2.30;;;10.20;99.90;;;12.83;59.56;95890.16;5027652;28;20373;-47
2022/09/27 03:55:10;;;;;;;4.70;1.63;;;10.20;99.90;;;12.13;61.61;95907.84;5027197;28;20228;-45
2022/09/27 03:57:38;;;;;;;4.67;1.90;;;10.00;99.90;;;12.51;60.54;95896.34;5043359;28;20217;-46
2022/09/27 04:00:08;;;;;;;7.80;2.27;;;10.00;99.90;;;12.23;61.27;95904.72;5042745;28;20064;-45
2022/09/27 04:02:39;;;;;;;3.57;1.93;;;10.00;99.90;;;12.00;62.41;95902.59;5029701;28;20068;-46
2022/09/27 04:05:25;;;;;;;3.67;1.52;;;9.90;99.90;;;12.38;61.09;95899.91;5032932;28;20041;-47
2022/09/27 04:07:59;;;;;;;4.10;2.73;;;10.00;99.90;;;12.45;61.01;95901.75;5027773;28;20065;-48
2022/09/27 04:10:28;;;;;;;4.43;3.20;;;10.00;99.90;;;12.56;60.56;95912.53;5043694;28;20053;-48
2022/09/27 04:12:56;;;;;;;4.20;2.20;;;10.00;99.90;;;12.41;61.11;95907.50;5027687;28;20056;-45
2022/09/27 04:15:26;;;;;;;3.23;1.77;;;10.00;99.90;;;12.41;60.62;95904.84;5044431;28;20063;-45
2022/09/27 04:18:17;;;;;;;7.33;1.90;;;10.00;99.90;;;12.59;60.32;95920.09;5027930;28;20050;-52
2022/09/27 04:21:03;;;;;;;3.87;2.23;;;10.00;99.90;;;12.82;59.77;95905.38;5029235;28;20043;-48
2022/09/27 04:23:32;;;;;;;4.30;1.80;;;10.10;99.90;;;12.45;60.92;95904.41;5042114;28;20049;-46
2022/09/27 04:26:01;;;;;;;4.10;1.67;;;10.00;99.90;;;12.30;61.23;95913.50;5043522;28;20060;-45
2022/09/27 04:28:48;;;;;;;7.57;2.00;;;9.90;99.90;;;12.73;59.48;95910.13;5030127;28;20080;-46
2022/09/27 04:31:21;;;;;;;4.05;2.83;;;10.10;99.90;;;12.72;59.95;95913.06;5043645;28;20056;-46
2022/09/27 04:34:08;;;;;;;4.77;2.83;;;10.10;99.90;;;12.71;59.80;95914.88;5028021;28;20063;-47
2022/09/27 04:36:36;;;;;;;5.78;2.10;;;10.10;99.90;;;12.87;59.64;95920.72;5027183;28;20079;-46
2022/09/27 04:39:10;;;;;;;5.75;1.90;;;10.20;99.90;;;13.01;59.25;95919.59;5043216;28;20068;-47
2022/09/27 04:41:41;;;;;;;5.53;2.23;;;10.20;99.90;;;12.96;59.36;95919.44;5027800;28;20074;-48
2022/09/27 04:44:10;;;;;;;3.20;1.90;;;10.20;99.90;;;12.90;59.52;95922.97;5029055;28;20263;-45
2022/09/27 04:46:40;;;;;;;5.00;1.87;;;10.10;99.90;;;13.02;59.36;95928.41;5043429;28;20436;-46
2022/09/27 04:49:10;;;;;;;3.57;1.77;;;10.20;99.90;;;12.94;59.36;95934.84;5043037;28;20049;-49
2022/09/27 04:51:38;;;;;;;5.60;1.97;;;10.20;99.90;;;13.09;58.71;95932.66;5042157;28;20259;-46
2022/09/27 04:54:06;;;;;;;3.33;1.57;;;10.30;99.90;;;12.73;59.58;95942.19;5042640;28;20051;-46
2022/09/27 04:56:38;;;;;;;3.37;1.70;;;10.10;99.90;;;12.97;59.15;95945.94;5042389;28;20629;-46
2022/09/27 04:59:08;;;;;;;4.07;1.67;;;10.10;99.90;;;12.92;59.04;95939.59;5027718;28;20054;-49
2022/09/27 05:01:40;;;;;;;2.10;1.40;;;10.10;99.90;;;13.00;59.03;95945.47;5042940;28;20051;-47
2022/09/27 05:04:16;;;;;;;3.07;1.67;;;10.20;99.90;;;13.06;58.73;95945.66;5026057;28;20053;-45
2022/09/27 05:06:49;;;;;;;2.87;1.40;;;10.30;99.90;;;12.84;59.49;95955.91;5042965;28;20059;-45
2022/09/27 05:09:36;;;;;;;2.07;1.30;;;10.10;99.90;;;12.73;59.67;95955.53;5042341;28;20049;-46
2022/09/27 05:12:06;;;;;;;3.63;1.42;;;10.00;99.90;;;12.73;60.00;95965.41;5042409;28;20064;-47
2022/09/27 05:14:44;;;;;;;4.00;1.33;;;10.00;99.90;;;12.89;59.28;95964.06;5026396;28;20055;-48
2022/09/27 05:17:32;;;;;;;2.93;1.23;;;10.00;99.90;;;12.51;60.81;95971.09;5041378;28;20356;-47
2022/09/27 05:20:19;;;;;;;6.00;1.40;;;9.90;99.90;;;12.37;61.33;95981.00;5031097;28;20056;-47
2022/09/27 05:23:10;;;;;;;2.00;1.00;;;9.70;99.90;;;12.23;61.83;95979.41;5032436;28;20448;-45
2022/09/27 05:25:38;;;;;;;3.23;1.20;;;9.70;99.90;;;12.20;61.78;95985.19;5027162;28;20050;-51
2022/09/27 05:28:07;;;;;;;2.83;1.63;;;9.70;99.90;;;11.90;62.24;95995.56;5027345;28;20052;-49
2022/09/27 05:30:35;;;;;;;3.03;1.53;;;9.60;99.90;;;12.04;62.41;95991.84;5025117;28;20075;-50
2022/09/27 05:33:08;;;;;;;2.77;1.20;;;9.60;99.90;;;12.04;62.17;96005.16;5042100;28;20067;-48
2022/09/27 05:35:53;;;;;;;1.97;1.40;;;9.50;99.90;;;11.91;62.29;96002.53;5027985;28;20276;-51
2022/09/27 05:38:25;;;;;;;5.53;1.33;;;9.50;99.90;;;11.79;62.83;96007.66;5043054;28;20049;-47
2022/09/27 05:40:56;;;;;;;2.13;1.50;;;9.50;99.90;;;11.89;62.04;96007.22;5042235;28;20049;-50
2022/09/27 05:43:25;;;;;;;5.87;1.87;;;9.50;99.90;;;12.01;61.87;96001.06;5041299;28;20243;-48
2022/09/27 05:45:53;;;;;;;4.03;1.50;;;9.50;99.90;;;11.97;61.91;96018.50;5042251;28;20057;-46
2022/09/27 05:48:22;;;;;;;3.00;1.43;;;9.50;99.90;;;11.97;61.67;96010.50;5040866;28;20053;-46
2022/09/27 05:50:59;;;;;;;2.00;1.53;;;9.50;99.90;;;11.92;62.37;96030.81;5040762;28;20080;-48
2022/09/27 05:53:27;;;;;;;6.03;1.50;;;9.50;99.90;;;11.92;62.36;96012.16;5041329;28;20057;-48
2022/09/27 05:55:59;;;;;;;4.03;1.87;;;9.50;99.90;;;11.89;62.55;96009.91;5042031;28;20053;-50
2022/09/27 05:58:34;;;;;;;2.77;1.27;;;9.50;99.90;;;11.87;62.58;96020.78;5025279;28;20049;-48
2022/09/27 06:01:12;;;;;;;4.50;1.93;;;9.50;99.90;;;11.94;62.01;96020.78;5041935;28;20426;-49
2022/09/27 06:04:02;;;;;;;2.97;1.90;;;9.50;99.90;;;12.18;61.44;96027.28;5025767;28;20049;-47
2022/09/27 06:06:58;;;;;;;3.73;1.67;;;9.60;99.90;;;12.50;60.59;96030.81;5028266;28;20056;-49
2022/09/27 06:09:27;;;;;;;3.43;1.57;;;9.70;99.90;;;12.12;61.54;96036.94;5041285;28;20053;-50
2022/09/27 06:11:56;;;;;;;3.53;2.20;;;9.60;99.90;;;12.30;61.17;96054.94;5041411;28;20064;-46
2022/09/27 06:14:24;;;;;;;2.37;1.60;;;9.70;99.90;;;11.96;61.58;96050.72;5041314;28;20385;-51
2022/09/27 06:17:06;;;;;;;3.47;1.77;;;9.50;99.90;;;12.20;60.78;96052.72;5043228;28;20053;-50
2022/09/27 06:19:39;;;;;;;5.90;1.73;;;9.60;99.90;;;12.49;60.39;96049.75;5041190;28;20064;-48
2022/09/27 06:22:07;;;;;;;2.37;1.67;;;9.70;99.90;;;12.69;59.93;96060.31;5025128;28;20236;-49
2022/09/27 06:24:46;;;;;;;2.63;1.60;;;9.90;99.90;;;12.57;59.52;96052.16;5041597;28;20532;-48
2022/09/27 06:27:20;;;;;;;1.65;1.38;;;9.90;99.90;;;12.68;59.34;96056.00;5042096;28;20362;-48
2022/09/27 06:29:56;;;;;;;4.03;1.20;;;9.90;99.90;;;12.77;59.50;96060.88;5042296;28;20312;-49
2022/09/27 06:32:37;;;;;;;2.03;1.40;;;10.00;99.90;;;12.74;58.98;96060.50;5041931;28;20049;-48
2022/09/27 06:35:35;;;;;;;3.33;1.30;;;9.90;99.90;;;12.78;59.03;96070.53;5028032;28;20057;-48
2022/09/27 06:38:08;;;;;;;1.40;1.20;;;9.90;99.90;;;12.88;58.92;96064.72;5041465;28;20049;-47
2022/09/27 06:40:46;;;;;;;1.33;1.03;;;10.00;99.90;;;12.78;58.36;96072.41;5039381;28;20331;-46
2022/09/27 06:43:20;;;;;;;0.77;0.70;;;9.90;99.90;;;12.59;58.96;96080.28;5041067;28;20053;-49
2022/09/27 06:46:06;;;;;;;1.77;0.80;;;9.80;99.90;;;12.69;58.61;96073.66;5027540;28;20051;-48
2022/09/27 06:48:53;;;;;;;1.97;0.90;;;9.80;99.90;;;12.43;58.70;96094.09;5025981;28;20055;-47
2022/09/27 06:51:21;;;;;;;0.80;0.80;;;9.70;99.90;;;12.40;59.21;96086.50;5028271;28;20061;-47
2022/09/27 06:53:49;;;;;;;1.77;0.90;;;9.60;99.90;;;12.50;58.65;96086.88;5029489;28;20056;-49
2022/09/27 06:56:18;;;;;;;0.97;0.80;;;9.70;99.90;;;11.94;59.98;96092.78;5043783;28;20060;-50
2022/09/27 07:01:43;;;;;;;1.50;0.70;;;9.40;99.90;;;12.10;59.91;96089.69;5032146;28;20040;-48
2022/09/27 07:04:18;;;;;;;0.70;0.70;;;9.40;99.90;;;12.32;59.19;96097.41;5031571;28;20370;-48
2022/09/27 07:06:56;;;;;;;1.57;0.80;;;9.50;99.90;;;12.44;59.10;96113.59;5029111;28;20608;-46
2022/09/27 07:09:27;;;;;;;4.10;2.20;;;9.50;99.90;;;12.45;59.40;96108.06;5027247;28;20225;-49
2022/09/27 07:11:55;;;;;;;6.87;2.77;;;9.60;99.90;;;12.33;59.82;96096.38;5026919;28;20067;-48
2022/09/27 07:14:25;;;;;;;2.57;1.43;;;9.60;99.90;;;12.65;58.57;96113.31;5027443;28;20347;-50
2022/09/27 07:16:54;;;;;;;2.93;1.90;;;9.80;99.90;;;12.63;58.68;96111.91;5028379;28;20057;-54
2022/09/27 07:19:22;;;;;;;2.67;1.10;;;9.80;99.90;;;12.51;59.06;96117.88;5027367;28;20052;-51
2022/09/27 07:21:51;;;;;;;1.83;1.03;;;9.70;99.90;;;12.47;59.07;96122.00;5027731;28;20057;-48
2022/09/27 07:24:19;;;;;;;2.83;1.10;;;9.70;99.90;;;12.43;59.45;96111.94;5026819;28;20049;-52
2022/09/27 07:26:48;;;;;;;1.27;0.93;;;9.70;99.90;;;12.67;59.10;96124.59;5029531;28;20252;-48
2022/09/27 07:29:19;;;;;;;1.13;0.90;;;9.80;99.90;;;12.80;58.70;96137.09;5027406;28;20099;-48
2022/09/27 07:31:51;;;;;;;2.20;1.17;;;9.80;99.90;;;12.74;58.63;96127.25;5027217;28;20247;-52
2022/09/27 07:34:19;;;;;;;1.40;1.30;;;9.80;99.90;;;12.74;58.23;96136.09;5027746;28;20061;-48
2022/09/27 07:36:47;;;;;;;1.50;1.30;;;9.90;99.90;;;12.54;58.87;96132.66;5027201;28;20057;-48
2022/09/27 07:39:15;;;;;;;1.10;1.00;;;9.80;99.90;;;12.53;59.29;96141.72;5027420;28;20366;-48
2022/09/27 07:41:43;;;;;;;3.20;1.20;;;9.70;99.90;;;12.67;58.63;96151.31;5027563;28;20344;-49
2022/09/27 07:44:15;;;;;;;2.13;0.83;;;9.80;99.90;;;12.56;58.95;96150.13;5027448;28;20050;-49
2022/09/27 07:47:07;;;;;;;2.17;1.30;;;9.80;99.90;;;12.66;58.89;96146.16;5021009;28;20255;-48
2022/09/27 07:49:53;;;;;;;2.03;1.60;;;9.80;99.90;;;12.34;59.43;96162.88;5030128;28;20076;-48
2022/09/27 07:52:50;;;;;;;1.70;1.40;;;9.80;99.90;;;12.26;60.13;96148.97;5020487;28;20065;-49
2022/09/27 07:55:35;;;;;;;2.73;1.47;;;9.70;99.90;;;12.54;59.70;96154.84;5026884;28;20135;-46
2022/09/27 07:58:16;;;;;;;2.03;1.10;;;9.80;99.90;;;12.00;60.47;96151.47;5026455;28;20064;-50
2022/09/27 08:00:45;;;;;;;1.90;1.40;;;9.70;99.90;;;12.10;60.09;96161.72;5027389;28;20057;-47
2022/09/27 08:03:16;;;;;;;3.70;1.67;;;9.80;99.90;;;12.27;59.43;96159.44;5025564;28;20063;-46
2022/09/27 08:05:46;;;;;;;2.00;1.17;;;9.80;99.90;;;12.19;59.11;96164.97;5026284;28;20053;-49
2022/09/27 08:08:16;;;;;;;3.87;1.40;;;9.70;99.90;;;12.27;58.89;96166.59;5026067;28;20348;-47
2022/09/27 08:10:46;;;;;;;1.40;1.20;;;9.70;99.90;;;12.40;59.13;96172.72;5027526;28;20053;-48
2022/09/27 08:13:18;;;;;;;2.27;1.43;;;9.80;99.90;;;12.39;58.63;96188.97;5027106;28;20057;-47
2022/09/27 08:15:51;;;;;;;1.50;1.40;;;9.90;99.90;;;12.54;58.60;96189.56;5027047;28;20235;-48
2022/09/27 08:18:20;;;;;;;1.10;1.00;;;9.90;99.90;;;12.15;59.23;96187.75;5026949;28;20053;-46
2022/09/27 08:20:58;;;;;;;1.27;0.80;;;9.80;99.90;;;12.21;59.09;96192.25;5030302;28;20056;-48
2022/09/27 08:23:35;;;;;;;3.63;1.33;;;9.80;99.90;;;12.17;60.47;96201.69;5012052;28;20061;-51
2022/09/27 08:26:12;;;;;;;2.30;1.10;;;9.90;99.90;;;12.88;58.94;96202.81;5027900;28;20053;-50
2022/09/27 08:29:00;;;;;;;2.23;1.00;;;10.30;99.90;;;12.90;58.37;96198.88;5028129;28;20068;-47
2022/09/27 08:31:31;;;;;;;2.10;1.30;;;10.40;99.90;;;12.72;58.68;96206.75;5026345;28;20075;-47
2022/09/27 08:33:59;;;;;;;2.63;1.10;;;10.30;99.90;;;12.54;58.59;96208.25;5027084;28;20067;-46
2022/09/27 08:36:28;;;;;;;3.07;1.10;;;10.20;99.90;;;12.91;57.70;96200.53;5025439;28;20362;-47
2022/09/27 08:38:58;;;;;;;2.00;1.30;;;10.30;99.90;;;12.80;57.83;96207.34;5029329;28;20048;-49
2022/09/27 08:41:56;;;;;;;2.17;1.53;;;10.30;99.90;;;12.76;57.73;96210.66;5027368;28;20355;-47
2022/09/27 08:44:47;;;;;;;3.23;1.60;;;10.20;99.90;;;12.78;57.77;96205.91;5009959;28;20053;-47
2022/09/27 08:47:39;;;;;;;3.30;1.85;;;10.30;99.90;;;12.83;57.99;96207.94;5026455;28;20049;-46
2022/09/27 08:50:33;;;;;;;3.07;1.43;;;10.20;99.90;;;13.13;57.49;96209.06;5025821;28;20061;-49
2022/09/27 08:53:13;;;;;;;4.33;2.20;;;10.40;99.90;;;13.28;57.28;96214.16;5027721;28;20049;-47
2022/09/27 08:55:56;;;;;;;2.42;1.90;;;10.60;99.90;;;13.20;57.47;96209.03;5025879;28;20053;-46
2022/09/27 08:58:47;;;;;;;2.50;1.67;;;10.50;99.90;;;13.19;56.99;96221.56;5011426;28;20057;-50
2022/09/27 09:01:21;;;;;;;3.67;1.70;;;10.50;99.90;;;13.35;56.57;96214.13;5025883;28;20053;-45
2022/09/27 09:04:30;;;;;;;3.38;1.58;;;10.50;99.90;;;13.38;56.36;96214.53;5025887;28;20071;-47
2022/09/27 09:07:16;;;;;;;2.53;1.53;;;10.50;99.90;;;13.04;56.59;96214.88;5027082;28;20290;-47
2022/09/27 09:12:45;;;;;;;4.73;1.67;;;10.30;99.90;;;13.25;56.32;96221.78;5026947;28;20064;-51
2022/09/27 09:13:56;;;;;;;7.37;2.23;;;10.30;99.90;;;13.22;56.17;96214.16;5025651;28;20050;-49
2022/09/27 09:16:55;;;;;;;5.80;1.70;;;10.40;99.90;;;13.23;56.33;96213.97;5026646;28;20340;-46
2022/09/27 09:19:43;;;;;;;3.70;1.70;;;10.50;99.90;;;13.46;55.90;96215.31;5025903;28;20061;-45
2022/09/27 09:23:03;;;;;;;3.80;1.57;;;10.70;99.90;;;13.54;55.75;96215.88;5027681;28;20060;-47
2022/09/27 09:25:34;;;;;;;5.78;1.80;;;10.90;99.90;;;13.68;55.52;96213.94;5013206;28;20050;-48
2022/09/27 09:28:12;;;;;;;4.70;2.27;;;10.90;99.90;;;13.71;55.26;96216.19;5026540;28;20057;-48
2022/09/27 09:31:30;;;;;;;3.70;1.38;;;11.00;99.90;;;13.58;54.59;96219.75;5009245;28;20103;-46
2022/09/27 09:34:14;;;;;;;1.70;1.23;;;11.10;99.90;;;13.76;54.66;96216.38;5006086;28;20061;-51
2022/09/27 09:36:55;;;;;;;2.72;1.85;;;11.20;99.90;;;13.88;54.27;96221.84;5011539;28;20064;-47
2022/09/27 09:39:37;;;;;;;2.40;1.60;;;11.30;99.90;;;13.64;54.63;96215.41;5027000;28;20060;-47
2022/09/27 09:42:24;;;;;;;1.92;1.42;;;11.20;99.90;;;13.63;54.46;96213.78;5022731;28;20084;-47
2022/09/27 09:45:18;;;;;;;2.40;1.70;;;11.20;99.90;;;13.78;53.50;96210.78;5025361;28;20045;-46
2022/09/27 09:48:34;;;;;;;5.57;1.98;;;11.30;99.90;;;13.19;53.32;96205.53;5027379;28;20492;-47
2022/09/27 09:51:09;;;;;;;3.10;1.80;;;11.10;96.90;;;13.32;54.08;96199.34;5025142;28;20358;-46
2022/09/27 09:54:04;;;;;;;2.35;1.60;;;11.20;99.40;;;13.29;53.83;96202.41;5009888;28;20061;-48
2022/09/27 09:56:44;;;;;;;6.75;1.83;;;11.20;99.50;;;13.71;53.44;96196.66;5008979;28;20061;-48
2022/09/27 09:59:34;;;;;;;2.93;2.03;;;11.30;99.90;;;13.73;52.26;96183.88;5026234;28;20053;-45
2022/09/27 10:02:29;;;;;;;4.45;1.80;;;11.30;96.30;;;13.35;52.42;96185.53;5009235;28;20058;-46
2022/09/27 10:05:05;;;;;;;4.35;1.67;;;11.20;94.20;;;13.79;51.94;96194.53;5020260;28;20409;-47
2022/09/27 10:07:38;;;;;;;5.15;1.73;;;11.30;94.90;;;13.91;51.46;96196.50;5008633;28;20075;-48
2022/09/27 10:10:11;;;;;;;3.53;1.45;;;11.40;91.60;;;14.26;51.13;96190.66;5024155;28;20355;-45
2022/09/27 10:12:46;;;;;;;5.75;1.50;;;11.60;93.70;;;14.32;51.17;96176.38;5029025;28;20060;-47
2022/09/27 10:15:27;;;;;;;2.88;1.67;;;11.80;93.30;;;14.37;49.89;96181.91;5007617;28;20072;-49
2022/09/27 10:17:58;;;;;;;2.90;2.42;;;11.80;87.90;;;14.37;50.11;96190.75;5026048;28;20440;-46
2022/09/27 10:20:42;;;;;;;3.03;1.70;;;11.80;91.60;;;14.26;49.80;96202.19;5026180;28;20053;-46
2022/09/27 10:23:19;;;;;;;2.33;1.58;;;11.90;88.80;;;13.86;49.41;96183.78;5009182;28;20052;-46
2022/09/27 10:26:11;;;;;;;3.92;1.95;;;11.60;85.40;;;13.73;49.66;96191.91;5018104;28;20347;-47
2022/09/27 10:28:46;;;;;;;5.47;2.90;;;11.50;85.60;;;13.69;50.17;96188.03;5009601;28;20053;-46
2022/09/27 10:31:21;;;;;;;2.08;1.58;;;11.40;87.90;;;13.98;49.72;96186.59;5025454;28;20057;-46
2022/09/27 10:34:36;;;;;;;2.97;1.67;;;11.50;86.80;;;14.43;49.20;96180.22;5025576;28;20359;-52
2022/09/27 10:37:11;;;;;;;2.97;1.85;;;11.80;85.30;;;14.63;48.90;96174.69;5009680;28;20061;-46
2022/09/27 10:39:52;;;;;;;4.30;1.67;;;11.90;86.80;;;14.77;48.97;96177.00;5026070;28;20370;-49
2022/09/27 10:42:34;;;;;;;2.33;2.13;;;12.10;85.60;;;14.95;48.79;96183.38;5024605;28;20068;-47
2022/09/27 10:45:31;;;;;;;3.15;1.30;;;12.30;85.90;;;15.06;49.16;96179.97;5008858;28;20243;-47
2022/09/27 10:48:21;;;;;;;4.28;1.88;;;12.30;83.80;;;15.02;49.30;96188.66;5024750;28;20056;-47
2022/09/27 10:51:01;;;;;;;5.72;1.80;;;12.30;86.40;;;15.13;49.65;96161.91;5009275;28;20243;-49
2022/09/27 10:53:43;;;;;;;1.90;1.25;;;12.30;88.70;;;15.18;49.29;96174.66;5024474;28;20096;-50
2022/09/27 10:56:26;;;;;;;2.63;1.30;;;12.30;88.90;;;14.89;50.01;96168.22;5024839;28;20359;-47
2022/09/27 10:58:56;;;;;;;2.17;1.23;;;12.10;89.60;;;14.88;50.44;96175.41;5026929;28;20061;-46
2022/09/27 11:01:37;;;;;;;1.92;1.40;;;11.90;92.30;;;14.92;50.87;96173.91;5008714;28;20060;-48
2022/09/27 11:04:33;;;;;;;3.08;1.67;;;11.80;94.70;;;14.95;50.69;96175.34;5023355;28;20053;-49
2022/09/27 11:07:14;;;;;;;2.33;1.40;;;11.90;94.00;;;14.96;50.99;96174.28;5027632;28;20068;-50
2022/09/27 11:10:01;;;;;;;22.80;11.25;;;12.00;94.60;;;14.96;51.28;96167.06;5009420;28;20057;-47
2022/09/27 11:12:34;;;;;;;17.88;9.82;;;11.90;96.60;;;14.92;51.96;96168.56;5024313;28;20045;-47
2022/09/27 11:15:13;;;;;;;22.35;10.68;;;11.80;97.20;;;14.86;51.76;96161.41;5024279;28;20057;-51
2022/09/27 11:18:04;;;;;;;6.95;4.15;;;11.80;97.70;;;14.68;51.97;96151.53;5025688;28;20056;-48